sensor_id;sensor_type;location;lat;lon;timestamp;P1;durP1;ratioP1;P2;durP2;ratioP2
25073;SDS011;13066;52.042;5.648;2024-01-27T00:01:25;14.25;;;4.72;;
25073;SDS011;13066;52.042;5.648;2024-01-27T00:03:53;16.08;;;4.20;;
25073;SDS011;13066;52.042;5.648;2024-01-27T00:06:21;13.77;;;4.30;;
25073;SDS011;13066;52.042;5.648;2024-01-27T00:08:49;20.17;;;4.65;;
25073;SDS011;13066;52.042;5.648;2024-01-27T00:11:18;16.38;;;4.78;;
25073;SDS011;13066;52.042;5.648;2024-01-27T00:13:50;15.10;;;4.47;;
25073;SDS011;13066;52.042;5.648;2024-01-27T00:16:17;15.75;;;4.93;;
25073;SDS011;13066;52.042;5.648;2024-01-27T00:18:45;15.07;;;4.25;;
25073;SDS011;13066;52.042;5.648;2024-01-27T00:21:13;15.48;;;4.35;;
25073;SDS011;13066;52.042;5.648;2024-01-27T00:23:41;12.35;;;4.03;;
25073;SDS011;13066;52.042;5.648;2024-01-27T00:26:09;11.80;;;4.10;;
25073;SDS011;13066;52.042;5.648;2024-01-27T00:28:39;15.25;;;4.15;;
25073;SDS011;13066;52.042;5.648;2024-01-27T00:31:07;13.18;;;4.15;;
25073;SDS011;13066;52.042;5.648;2024-01-27T00:33:36;11.90;;;4.53;;
25073;SDS011;13066;52.042;5.648;2024-01-27T00:36:04;12.20;;;4.47;;
25073;SDS011;13066;52.042;5.648;2024-01-27T00:38:33;15.13;;;4.43;;
25073;SDS011;13066;52.042;5.648;2024-01-27T00:41:01;16.52;;;4.57;;
25073;SDS011;13066;52.042;5.648;2024-01-27T00:43:29;14.50;;;3.83;;
25073;SDS011;13066;52.042;5.648;2024-01-27T00:45:58;12.82;;;4.05;;
25073;SDS011;13066;52.042;5.648;2024-01-27T00:48:26;15.43;;;4.00;;
25073;SDS011;13066;52.042;5.648;2024-01-27T00:50:54;9.93;;;4.15;;
25073;SDS011;13066;52.042;5.648;2024-01-27T00:53:23;15.98;;;3.97;;
25073;SDS011;13066;52.042;5.648;2024-01-27T00:55:52;13.32;;;4.30;;
25073;SDS011;13066;52.042;5.648;2024-01-27T00:58:20;14.38;;;4.30;;
25073;SDS011;13066;52.042;5.648;2024-01-27T01:00:47;16.95;;;4.80;;
25073;SDS011;13066;52.042;5.648;2024-01-27T01:03:17;16.08;;;4.15;;
25073;SDS011;13066;52.042;5.648;2024-01-27T01:05:45;19.08;;;4.38;;
25073;SDS011;13066;52.042;5.648;2024-01-27T01:08:13;18.17;;;4.18;;
25073;SDS011;13066;52.042;5.648;2024-01-27T01:10:41;13.52;;;4.72;;
25073;SDS011;13066;52.042;5.648;2024-01-27T01:13:09;15.15;;;4.47;;
25073;SDS011;13066;52.042;5.648;2024-01-27T01:15:37;11.05;;;3.80;;
25073;SDS011;13066;52.042;5.648;2024-01-27T01:18:06;13.57;;;4.80;;
25073;SDS011;13066;52.042;5.648;2024-01-27T01:20:35;12.60;;;4.35;;
25073;SDS011;13066;52.042;5.648;2024-01-27T01:23:03;15.00;;;4.40;;
25073;SDS011;13066;52.042;5.648;2024-01-27T01:25:31;18.33;;;4.82;;
25073;SDS011;13066;52.042;5.648;2024-01-27T01:27:59;16.75;;;4.28;;
25073;SDS011;13066;52.042;5.648;2024-01-27T01:30:27;14.32;;;4.40;;
25073;SDS011;13066;52.042;5.648;2024-01-27T01:32:55;16.20;;;4.70;;
25073;SDS011;13066;52.042;5.648;2024-01-27T01:35:23;13.63;;;4.30;;
25073;SDS011;13066;52.042;5.648;2024-01-27T01:37:52;16.65;;;3.80;;
25073;SDS011;13066;52.042;5.648;2024-01-27T01:40:20;16.98;;;4.45;;
25073;SDS011;13066;52.042;5.648;2024-01-27T01:42:51;15.25;;;4.88;;
25073;SDS011;13066;52.042;5.648;2024-01-27T01:45:19;12.88;;;4.60;;
25073;SDS011;13066;52.042;5.648;2024-01-27T01:47:47;14.45;;;4.35;;
25073;SDS011;13066;52.042;5.648;2024-01-27T01:50:17;15.05;;;4.32;;
25073;SDS011;13066;52.042;5.648;2024-01-27T01:52:45;14.05;;;4.47;;
25073;SDS011;13066;52.042;5.648;2024-01-27T01:55:15;11.80;;;3.88;;
25073;SDS011;13066;52.042;5.648;2024-01-27T01:57:44;15.07;;;4.30;;
25073;SDS011;13066;52.042;5.648;2024-01-27T02:00:12;12.70;;;4.53;;
25073;SDS011;13066;52.042;5.648;2024-01-27T02:02:42;15.43;;;4.63;;
25073;SDS011;13066;52.042;5.648;2024-01-27T02:05:11;14.95;;;4.53;;
25073;SDS011;13066;52.042;5.648;2024-01-27T02:07:39;18.83;;;4.53;;
25073;SDS011;13066;52.042;5.648;2024-01-27T02:10:08;16.05;;;4.75;;
25073;SDS011;13066;52.042;5.648;2024-01-27T02:12:41;12.40;;;5.07;;
25073;SDS011;13066;52.042;5.648;2024-01-27T02:15:10;14.73;;;5.18;;
25073;SDS011;13066;52.042;5.648;2024-01-27T02:17:40;19.70;;;5.10;;
25073;SDS011;13066;52.042;5.648;2024-01-27T02:20:08;15.88;;;5.35;;
25073;SDS011;13066;52.042;5.648;2024-01-27T02:22:37;16.30;;;4.38;;
25073;SDS011;13066;52.042;5.648;2024-01-27T02:25:06;17.05;;;4.82;;
25073;SDS011;13066;52.042;5.648;2024-01-27T02:27:35;15.50;;;5.18;;
25073;SDS011;13066;52.042;5.648;2024-01-27T02:30:03;12.95;;;4.25;;
25073;SDS011;13066;52.042;5.648;2024-01-27T02:32:32;13.63;;;4.45;;
25073;SDS011;13066;52.042;5.648;2024-01-27T02:35:00;13.25;;;4.45;;
25073;SDS011;13066;52.042;5.648;2024-01-27T02:37:28;12.40;;;4.55;;
25073;SDS011;13066;52.042;5.648;2024-01-27T02:39:56;14.65;;;4.38;;
25073;SDS011;13066;52.042;5.648;2024-01-27T02:42:25;15.27;;;4.90;;
25073;SDS011;13066;52.042;5.648;2024-01-27T02:44:53;14.40;;;4.53;;
25073;SDS011;13066;52.042;5.648;2024-01-27T02:47:21;13.13;;;4.28;;
25073;SDS011;13066;52.042;5.648;2024-01-27T02:49:49;13.55;;;4.80;;
25073;SDS011;13066;52.042;5.648;2024-01-27T02:52:17;15.55;;;5.22;;
25073;SDS011;13066;52.042;5.648;2024-01-27T02:54:45;16.67;;;4.65;;
25073;SDS011;13066;52.042;5.648;2024-01-27T02:57:13;12.20;;;4.97;;
25073;SDS011;13066;52.042;5.648;2024-01-27T02:59:46;13.23;;;4.75;;
25073;SDS011;13066;52.042;5.648;2024-01-27T03:02:14;17.10;;;5.15;;
25073;SDS011;13066;52.042;5.648;2024-01-27T03:04:41;14.65;;;5.35;;
25073;SDS011;13066;52.042;5.648;2024-01-27T03:07:09;13.98;;;4.78;;
25073;SDS011;13066;52.042;5.648;2024-01-27T03:09:37;10.73;;;4.32;;
25073;SDS011;13066;52.042;5.648;2024-01-27T03:12:06;18.20;;;5.68;;
25073;SDS011;13066;52.042;5.648;2024-01-27T03:14:34;19.80;;;5.38;;
25073;SDS011;13066;52.042;5.648;2024-01-27T03:17:03;12.32;;;4.90;;
25073;SDS011;13066;52.042;5.648;2024-01-27T03:19:31;11.27;;;4.45;;
25073;SDS011;13066;52.042;5.648;2024-01-27T03:22:00;14.43;;;4.82;;
25073;SDS011;13066;52.042;5.648;2024-01-27T03:24:27;16.70;;;5.18;;
25073;SDS011;13066;52.042;5.648;2024-01-27T03:26:55;17.67;;;4.68;;
25073;SDS011;13066;52.042;5.648;2024-01-27T03:29:24;14.43;;;4.88;;
25073;SDS011;13066;52.042;5.648;2024-01-27T03:31:52;15.45;;;5.05;;
25073;SDS011;13066;52.042;5.648;2024-01-27T03:34:21;12.27;;;4.65;;
25073;SDS011;13066;52.042;5.648;2024-01-27T03:36:52;15.50;;;5.10;;
25073;SDS011;13066;52.042;5.648;2024-01-27T03:39:22;17.02;;;5.43;;
25073;SDS011;13066;52.042;5.648;2024-01-27T03:41:50;15.95;;;5.00;;
25073;SDS011;13066;52.042;5.648;2024-01-27T03:44:18;14.05;;;5.32;;
25073;SDS011;13066;52.042;5.648;2024-01-27T03:46:46;16.02;;;5.20;;
25073;SDS011;13066;52.042;5.648;2024-01-27T03:49:16;15.05;;;5.35;;
25073;SDS011;13066;52.042;5.648;2024-01-27T03:51:45;15.40;;;5.45;;
25073;SDS011;13066;52.042;5.648;2024-01-27T03:54:13;12.82;;;5.07;;
25073;SDS011;13066;52.042;5.648;2024-01-27T03:56:41;17.27;;;4.40;;
25073;SDS011;13066;52.042;5.648;2024-01-27T03:59:09;12.70;;;4.70;;
25073;SDS011;13066;52.042;5.648;2024-01-27T04:01:39;16.63;;;4.88;;
25073;SDS011;13066;52.042;5.648;2024-01-27T04:04:09;12.38;;;4.68;;
25073;SDS011;13066;52.042;5.648;2024-01-27T04:06:37;14.82;;;4.97;;
25073;SDS011;13066;52.042;5.648;2024-01-27T04:09:07;13.88;;;4.43;;
25073;SDS011;13066;52.042;5.648;2024-01-27T04:11:36;15.48;;;5.03;;
25073;SDS011;13066;52.042;5.648;2024-01-27T04:14:05;15.43;;;5.35;;
25073;SDS011;13066;52.042;5.648;2024-01-27T04:16:34;19.08;;;5.32;;
25073;SDS011;13066;52.042;5.648;2024-01-27T04:19:02;13.23;;;5.13;;
25073;SDS011;13066;52.042;5.648;2024-01-27T04:21:30;15.48;;;5.03;;
25073;SDS011;13066;52.042;5.648;2024-01-27T04:23:58;15.65;;;5.03;;
25073;SDS011;13066;52.042;5.648;2024-01-27T04:26:28;16.50;;;4.70;;
25073;SDS011;13066;52.042;5.648;2024-01-27T04:28:55;13.85;;;4.90;;
25073;SDS011;13066;52.042;5.648;2024-01-27T04:31:23;16.58;;;5.28;;
25073;SDS011;13066;52.042;5.648;2024-01-27T04:33:51;14.30;;;4.57;;
25073;SDS011;13066;52.042;5.648;2024-01-27T04:36:26;15.35;;;5.00;;
25073;SDS011;13066;52.042;5.648;2024-01-27T04:38:55;13.80;;;5.18;;
25073;SDS011;13066;52.042;5.648;2024-01-27T04:41:23;15.48;;;5.35;;
25073;SDS011;13066;52.042;5.648;2024-01-27T04:43:52;13.43;;;4.78;;
25073;SDS011;13066;52.042;5.648;2024-01-27T04:46:22;15.30;;;4.75;;
25073;SDS011;13066;52.042;5.648;2024-01-27T04:48:50;11.50;;;4.97;;
25073;SDS011;13066;52.042;5.648;2024-01-27T04:51:18;18.67;;;4.60;;
25073;SDS011;13066;52.042;5.648;2024-01-27T04:53:46;16.13;;;4.88;;
25073;SDS011;13066;52.042;5.648;2024-01-27T04:56:14;14.68;;;4.97;;
25073;SDS011;13066;52.042;5.648;2024-01-27T04:58:42;15.60;;;5.30;;
25073;SDS011;13066;52.042;5.648;2024-01-27T05:01:11;16.10;;;5.30;;
25073;SDS011;13066;52.042;5.648;2024-01-27T05:03:39;11.88;;;4.38;;
25073;SDS011;13066;52.042;5.648;2024-01-27T05:06:08;15.02;;;4.93;;
25073;SDS011;13066;52.042;5.648;2024-01-27T05:08:37;12.68;;;4.55;;
25073;SDS011;13066;52.042;5.648;2024-01-27T05:11:06;13.43;;;4.93;;
25073;SDS011;13066;52.042;5.648;2024-01-27T05:13:35;15.77;;;5.65;;
25073;SDS011;13066;52.042;5.648;2024-01-27T05:16:04;20.15;;;5.43;;
25073;SDS011;13066;52.042;5.648;2024-01-27T05:18:34;18.45;;;6.47;;
25073;SDS011;13066;52.042;5.648;2024-01-27T05:21:02;16.20;;;6.18;;
25073;SDS011;13066;52.042;5.648;2024-01-27T05:23:31;18.45;;;6.55;;
25073;SDS011;13066;52.042;5.648;2024-01-27T05:25:58;16.65;;;6.43;;
25073;SDS011;13066;52.042;5.648;2024-01-27T05:28:26;15.45;;;7.10;;
25073;SDS011;13066;52.042;5.648;2024-01-27T05:30:54;16.08;;;7.03;;
25073;SDS011;13066;52.042;5.648;2024-01-27T05:33:22;16.92;;;7.30;;
25073;SDS011;13066;52.042;5.648;2024-01-27T05:35:52;18.17;;;7.47;;
25073;SDS011;13066;52.042;5.648;2024-01-27T05:38:20;15.95;;;6.82;;
25073;SDS011;13066;52.042;5.648;2024-01-27T05:40:49;17.08;;;7.65;;
25073;SDS011;13066;52.042;5.648;2024-01-27T05:43:17;16.33;;;6.97;;
25073;SDS011;13066;52.042;5.648;2024-01-27T05:45:45;19.33;;;8.05;;
25073;SDS011;13066;52.042;5.648;2024-01-27T05:48:13;17.70;;;7.28;;
25073;SDS011;13066;52.042;5.648;2024-01-27T05:50:42;17.30;;;7.18;;
25073;SDS011;13066;52.042;5.648;2024-01-27T05:53:11;17.52;;;7.85;;
25073;SDS011;13066;52.042;5.648;2024-01-27T05:55:39;18.00;;;8.48;;
25073;SDS011;13066;52.042;5.648;2024-01-27T05:58:08;16.20;;;7.85;;
25073;SDS011;13066;52.042;5.648;2024-01-27T06:00:35;19.13;;;7.47;;
25073;SDS011;13066;52.042;5.648;2024-01-27T06:03:04;14.20;;;7.25;;
25073;SDS011;13066;52.042;5.648;2024-01-27T06:05:32;16.75;;;7.50;;
25073;SDS011;13066;52.042;5.648;2024-01-27T06:08:00;13.23;;;7.28;;
25073;SDS011;13066;52.042;5.648;2024-01-27T06:10:29;18.23;;;8.18;;
25073;SDS011;13066;52.042;5.648;2024-01-27T06:12:57;17.15;;;7.88;;
25073;SDS011;13066;52.042;5.648;2024-01-27T06:15:25;17.70;;;8.10;;
25073;SDS011;13066;52.042;5.648;2024-01-27T06:17:56;19.02;;;7.97;;
25073;SDS011;13066;52.042;5.648;2024-01-27T06:20:25;17.50;;;8.02;;
25073;SDS011;13066;52.042;5.648;2024-01-27T06:22:53;16.42;;;8.40;;
25073;SDS011;13066;52.042;5.648;2024-01-27T06:25:21;20.25;;;8.52;;
25073;SDS011;13066;52.042;5.648;2024-01-27T06:27:50;17.27;;;8.27;;
25073;SDS011;13066;52.042;5.648;2024-01-27T06:30:18;18.35;;;8.77;;
25073;SDS011;13066;52.042;5.648;2024-01-27T06:32:46;20.00;;;8.27;;
25073;SDS011;13066;52.042;5.648;2024-01-27T06:35:15;16.92;;;7.93;;
25073;SDS011;13066;52.042;5.648;2024-01-27T06:37:43;17.30;;;8.10;;
25073;SDS011;13066;52.042;5.648;2024-01-27T06:40:11;17.20;;;8.10;;
25073;SDS011;13066;52.042;5.648;2024-01-27T06:42:41;18.58;;;8.63;;
25073;SDS011;13066;52.042;5.648;2024-01-27T06:45:10;17.75;;;7.82;;
25073;SDS011;13066;52.042;5.648;2024-01-27T06:47:38;17.35;;;7.90;;
25073;SDS011;13066;52.042;5.648;2024-01-27T06:50:07;15.70;;;7.88;;
25073;SDS011;13066;52.042;5.648;2024-01-27T06:52:35;17.98;;;8.27;;
25073;SDS011;13066;52.042;5.648;2024-01-27T06:55:04;23.33;;;8.55;;
25073;SDS011;13066;52.042;5.648;2024-01-27T06:57:34;17.58;;;8.25;;
25073;SDS011;13066;52.042;5.648;2024-01-27T07:00:02;19.67;;;7.78;;
25073;SDS011;13066;52.042;5.648;2024-01-27T07:02:32;16.90;;;7.88;;
25073;SDS011;13066;52.042;5.648;2024-01-27T07:05:00;19.65;;;9.25;;
25073;SDS011;13066;52.042;5.648;2024-01-27T07:07:28;15.00;;;7.93;;
25073;SDS011;13066;52.042;5.648;2024-01-27T07:09:57;17.45;;;7.95;;
25073;SDS011;13066;52.042;5.648;2024-01-27T07:12:25;17.58;;;8.20;;
25073;SDS011;13066;52.042;5.648;2024-01-27T07:14:53;17.23;;;7.72;;
25073;SDS011;13066;52.042;5.648;2024-01-27T07:17:23;18.40;;;7.93;;
25073;SDS011;13066;52.042;5.648;2024-01-27T07:19:53;15.65;;;7.88;;
25073;SDS011;13066;52.042;5.648;2024-01-27T07:22:22;16.90;;;7.20;;
25073;SDS011;13066;52.042;5.648;2024-01-27T07:24:50;15.15;;;7.60;;
25073;SDS011;13066;52.042;5.648;2024-01-27T07:27:18;17.23;;;8.00;;
25073;SDS011;13066;52.042;5.648;2024-01-27T07:29:46;17.25;;;7.85;;
25073;SDS011;13066;52.042;5.648;2024-01-27T07:32:15;17.65;;;7.97;;
25073;SDS011;13066;52.042;5.648;2024-01-27T07:34:43;20.98;;;8.60;;
25073;SDS011;13066;52.042;5.648;2024-01-27T07:37:13;22.50;;;8.57;;
25073;SDS011;13066;52.042;5.648;2024-01-27T07:39:40;22.67;;;8.73;;
25073;SDS011;13066;52.042;5.648;2024-01-27T07:42:08;16.40;;;8.02;;
25073;SDS011;13066;52.042;5.648;2024-01-27T07:44:37;18.85;;;8.25;;
25073;SDS011;13066;52.042;5.648;2024-01-27T07:47:05;20.40;;;8.68;;
25073;SDS011;13066;52.042;5.648;2024-01-27T07:49:33;18.25;;;8.60;;
25073;SDS011;13066;52.042;5.648;2024-01-27T07:52:01;15.60;;;7.53;;
25073;SDS011;13066;52.042;5.648;2024-01-27T07:54:30;17.50;;;8.43;;
25073;SDS011;13066;52.042;5.648;2024-01-27T07:56:59;20.15;;;8.40;;
25073;SDS011;13066;52.042;5.648;2024-01-27T07:59:28;19.67;;;8.73;;
25073;SDS011;13066;52.042;5.648;2024-01-27T08:01:55;14.88;;;8.43;;
25073;SDS011;13066;52.042;5.648;2024-01-27T08:04:24;23.50;;;8.93;;
25073;SDS011;13066;52.042;5.648;2024-01-27T08:06:52;15.40;;;8.02;;
25073;SDS011;13066;52.042;5.648;2024-01-27T08:09:21;24.45;;;8.85;;
25073;SDS011;13066;52.042;5.648;2024-01-27T08:11:51;21.42;;;8.73;;
25073;SDS011;13066;52.042;5.648;2024-01-27T08:14:19;16.83;;;8.40;;
25073;SDS011;13066;52.042;5.648;2024-01-27T08:16:48;20.50;;;8.75;;
25073;SDS011;13066;52.042;5.648;2024-01-27T08:19:16;19.67;;;8.90;;
25073;SDS011;13066;52.042;5.648;2024-01-27T08:21:47;18.25;;;8.52;;
25073;SDS011;13066;52.042;5.648;2024-01-27T08:24:15;16.10;;;8.73;;
25073;SDS011;13066;52.042;5.648;2024-01-27T08:26:44;18.88;;;8.73;;
25073;SDS011;13066;52.042;5.648;2024-01-27T08:29:14;20.73;;;9.15;;
25073;SDS011;13066;52.042;5.648;2024-01-27T08:31:42;16.15;;;9.45;;
25073;SDS011;13066;52.042;5.648;2024-01-27T08:34:10;18.15;;;9.68;;
25073;SDS011;13066;52.042;5.648;2024-01-27T08:36:41;17.92;;;8.88;;
25073;SDS011;13066;52.042;5.648;2024-01-27T08:39:09;23.40;;;10.65;;
25073;SDS011;13066;52.042;5.648;2024-01-27T08:41:39;22.40;;;10.63;;
25073;SDS011;13066;52.042;5.648;2024-01-27T08:44:07;25.08;;;12.40;;
25073;SDS011;13066;52.042;5.648;2024-01-27T08:46:37;24.75;;;12.13;;
25073;SDS011;13066;52.042;5.648;2024-01-27T08:49:05;20.63;;;10.00;;
25073;SDS011;13066;52.042;5.648;2024-01-27T08:51:33;20.27;;;10.02;;
25073;SDS011;13066;52.042;5.648;2024-01-27T08:54:01;19.63;;;9.32;;
25073;SDS011;13066;52.042;5.648;2024-01-27T08:56:29;17.20;;;9.13;;
25073;SDS011;13066;52.042;5.648;2024-01-27T08:58:57;20.05;;;10.25;;
25073;SDS011;13066;52.042;5.648;2024-01-27T09:01:25;18.02;;;9.30;;
25073;SDS011;13066;52.042;5.648;2024-01-27T09:03:55;16.92;;;9.43;;
25073;SDS011;13066;52.042;5.648;2024-01-27T09:06:23;19.10;;;9.95;;
25073;SDS011;13066;52.042;5.648;2024-01-27T09:08:57;21.23;;;10.10;;
25073;SDS011;13066;52.042;5.648;2024-01-27T09:11:25;19.83;;;9.75;;
25073;SDS011;13066;52.042;5.648;2024-01-27T09:13:54;22.80;;;10.20;;
25073;SDS011;13066;52.042;5.648;2024-01-27T09:16:22;17.08;;;9.40;;
25073;SDS011;13066;52.042;5.648;2024-01-27T09:18:50;20.83;;;10.27;;
25073;SDS011;13066;52.042;5.648;2024-01-27T09:21:21;19.67;;;10.25;;
25073;SDS011;13066;52.042;5.648;2024-01-27T09:23:54;25.05;;;9.80;;
25073;SDS011;13066;52.042;5.648;2024-01-27T09:26:24;18.85;;;9.80;;
25073;SDS011;13066;52.042;5.648;2024-01-27T09:28:52;19.98;;;9.73;;
25073;SDS011;13066;52.042;5.648;2024-01-27T09:31:22;16.77;;;9.90;;
25073;SDS011;13066;52.042;5.648;2024-01-27T09:33:50;21.60;;;9.65;;
25073;SDS011;13066;52.042;5.648;2024-01-27T09:36:20;15.93;;;9.77;;
25073;SDS011;13066;52.042;5.648;2024-01-27T09:38:49;20.08;;;11.43;;
25073;SDS011;13066;52.042;5.648;2024-01-27T09:41:18;24.25;;;11.80;;
25073;SDS011;13066;52.042;5.648;2024-01-27T09:43:47;20.42;;;10.10;;
25073;SDS011;13066;52.042;5.648;2024-01-27T09:46:15;18.92;;;10.75;;
25073;SDS011;13066;52.042;5.648;2024-01-27T09:48:43;18.77;;;10.10;;
25073;SDS011;13066;52.042;5.648;2024-01-27T09:51:12;18.52;;;10.05;;
25073;SDS011;13066;52.042;5.648;2024-01-27T09:53:42;23.38;;;10.40;;
25073;SDS011;13066;52.042;5.648;2024-01-27T09:56:10;23.10;;;10.50;;
25073;SDS011;13066;52.042;5.648;2024-01-27T09:58:38;23.95;;;10.65;;
25073;SDS011;13066;52.042;5.648;2024-01-27T10:01:07;21.13;;;10.25;;
25073;SDS011;13066;52.042;5.648;2024-01-27T10:03:36;21.70;;;10.52;;
25073;SDS011;13066;52.042;5.648;2024-01-27T10:06:07;21.98;;;11.27;;
25073;SDS011;13066;52.042;5.648;2024-01-27T10:08:36;21.83;;;10.80;;
25073;SDS011;13066;52.042;5.648;2024-01-27T10:11:07;19.70;;;11.23;;
25073;SDS011;13066;52.042;5.648;2024-01-27T10:13:37;23.42;;;10.98;;
25073;SDS011;13066;52.042;5.648;2024-01-27T10:16:05;21.08;;;11.30;;
25073;SDS011;13066;52.042;5.648;2024-01-27T10:18:34;19.10;;;10.32;;
25073;SDS011;13066;52.042;5.648;2024-01-27T10:21:11;21.92;;;10.40;;
25073;SDS011;13066;52.042;5.648;2024-01-27T10:23:40;19.45;;;10.85;;
25073;SDS011;13066;52.042;5.648;2024-01-27T10:26:10;22.10;;;9.80;;
25073;SDS011;13066;52.042;5.648;2024-01-27T10:28:38;18.08;;;10.32;;
25073;SDS011;13066;52.042;5.648;2024-01-27T10:31:08;21.98;;;10.50;;
25073;SDS011;13066;52.042;5.648;2024-01-27T10:33:37;20.45;;;9.82;;
25073;SDS011;13066;52.042;5.648;2024-01-27T10:36:05;17.98;;;9.88;;
25073;SDS011;13066;52.042;5.648;2024-01-27T10:38:34;24.02;;;11.75;;
25073;SDS011;13066;52.042;5.648;2024-01-27T10:41:02;21.27;;;11.32;;
25073;SDS011;13066;52.042;5.648;2024-01-27T10:43:39;21.80;;;11.43;;
25073;SDS011;13066;52.042;5.648;2024-01-27T10:46:07;17.63;;;10.10;;
25073;SDS011;13066;52.042;5.648;2024-01-27T10:48:37;17.77;;;9.55;;
25073;SDS011;13066;52.042;5.648;2024-01-27T10:51:07;20.77;;;10.27;;
25073;SDS011;13066;52.042;5.648;2024-01-27T10:53:36;15.98;;;9.20;;
25073;SDS011;13066;52.042;5.648;2024-01-27T10:56:06;24.92;;;11.40;;
25073;SDS011;13066;52.042;5.648;2024-01-27T10:58:36;18.10;;;9.77;;
25073;SDS011;13066;52.042;5.648;2024-01-27T11:01:08;16.92;;;9.10;;
25073;SDS011;13066;52.042;5.648;2024-01-27T11:03:37;22.05;;;10.07;;
25073;SDS011;13066;52.042;5.648;2024-01-27T11:06:06;19.40;;;9.27;;
25073;SDS011;13066;52.042;5.648;2024-01-27T11:08:35;21.52;;;9.35;;
25073;SDS011;13066;52.042;5.648;2024-01-27T11:11:09;20.98;;;10.15;;
25073;SDS011;13066;52.042;5.648;2024-01-27T11:13:38;17.25;;;8.95;;
25073;SDS011;13066;52.042;5.648;2024-01-27T11:16:07;18.08;;;9.50;;
25073;SDS011;13066;52.042;5.648;2024-01-27T11:18:43;19.63;;;9.85;;
25073;SDS011;13066;52.042;5.648;2024-01-27T11:21:12;21.60;;;10.00;;
25073;SDS011;13066;52.042;5.648;2024-01-27T11:23:41;20.67;;;9.38;;
25073;SDS011;13066;52.042;5.648;2024-01-27T11:26:09;19.83;;;9.25;;
25073;SDS011;13066;52.042;5.648;2024-01-27T11:28:42;17.02;;;8.30;;
25073;SDS011;13066;52.042;5.648;2024-01-27T11:31:10;16.88;;;8.20;;
25073;SDS011;13066;52.042;5.648;2024-01-27T11:33:41;21.88;;;7.78;;
25073;SDS011;13066;52.042;5.648;2024-01-27T11:36:17;19.70;;;8.23;;
25073;SDS011;13066;52.042;5.648;2024-01-27T11:38:46;16.80;;;7.50;;
25073;SDS011;13066;52.042;5.648;2024-01-27T11:41:23;22.52;;;7.97;;
25073;SDS011;13066;52.042;5.648;2024-01-27T11:43:53;18.88;;;8.40;;
25073;SDS011;13066;52.042;5.648;2024-01-27T11:46:22;20.88;;;8.90;;
25073;SDS011;13066;52.042;5.648;2024-01-27T11:48:50;16.95;;;8.82;;
25073;SDS011;13066;52.042;5.648;2024-01-27T11:51:18;20.08;;;8.68;;
25073;SDS011;13066;52.042;5.648;2024-01-27T11:53:46;18.35;;;7.95;;
25073;SDS011;13066;52.042;5.648;2024-01-27T11:56:14;17.00;;;8.18;;
25073;SDS011;13066;52.042;5.648;2024-01-27T11:58:47;13.15;;;7.28;;
25073;SDS011;13066;52.042;5.648;2024-01-27T12:01:17;15.65;;;7.40;;
25073;SDS011;13066;52.042;5.648;2024-01-27T12:03:45;16.98;;;7.40;;
25073;SDS011;13066;52.042;5.648;2024-01-27T12:06:15;20.05;;;7.90;;
25073;SDS011;13066;52.042;5.648;2024-01-27T12:08:43;18.25;;;7.57;;
25073;SDS011;13066;52.042;5.648;2024-01-27T12:11:15;21.02;;;7.55;;
25073;SDS011;13066;52.042;5.648;2024-01-27T12:13:48;24.13;;;8.50;;
25073;SDS011;13066;52.042;5.648;2024-01-27T12:16:18;20.30;;;8.70;;
25073;SDS011;13066;52.042;5.648;2024-01-27T12:18:47;17.00;;;8.43;;
25073;SDS011;13066;52.042;5.648;2024-01-27T12:21:18;17.85;;;8.65;;
25073;SDS011;13066;52.042;5.648;2024-01-27T12:23:50;18.27;;;7.63;;
25073;SDS011;13066;52.042;5.648;2024-01-27T12:26:19;18.45;;;8.60;;
25073;SDS011;13066;52.042;5.648;2024-01-27T12:28:48;19.63;;;7.57;;
25073;SDS011;13066;52.042;5.648;2024-01-27T12:31:17;18.20;;;8.00;;
25073;SDS011;13066;52.042;5.648;2024-01-27T12:33:48;16.67;;;7.67;;
25073;SDS011;13066;52.042;5.648;2024-01-27T12:36:17;16.38;;;7.30;;
25073;SDS011;13066;52.042;5.648;2024-01-27T12:38:47;20.58;;;7.38;;
25073;SDS011;13066;52.042;5.648;2024-01-27T12:41:21;21.85;;;7.80;;
25073;SDS011;13066;52.042;5.648;2024-01-27T12:43:49;17.48;;;7.10;;
25073;SDS011;13066;52.042;5.648;2024-01-27T12:46:18;19.08;;;7.57;;
25073;SDS011;13066;52.042;5.648;2024-01-27T12:48:46;14.65;;;6.82;;
25073;SDS011;13066;52.042;5.648;2024-01-27T12:51:14;19.90;;;7.10;;
25073;SDS011;13066;52.042;5.648;2024-01-27T12:53:43;16.20;;;6.68;;
25073;SDS011;13066;52.042;5.648;2024-01-27T12:56:14;18.25;;;7.25;;
25073;SDS011;13066;52.042;5.648;2024-01-27T12:58:43;19.70;;;6.82;;
25073;SDS011;13066;52.042;5.648;2024-01-27T13:01:11;15.07;;;5.93;;
25073;SDS011;13066;52.042;5.648;2024-01-27T13:03:41;19.92;;;5.97;;
25073;SDS011;13066;52.042;5.648;2024-01-27T13:06:12;18.75;;;6.60;;
25073;SDS011;13066;52.042;5.648;2024-01-27T13:08:40;17.08;;;5.75;;
25073;SDS011;13066;52.042;5.648;2024-01-27T13:11:09;17.42;;;5.78;;
25073;SDS011;13066;52.042;5.648;2024-01-27T13:13:39;15.15;;;5.93;;
25073;SDS011;13066;52.042;5.648;2024-01-27T13:16:08;18.55;;;6.28;;
25073;SDS011;13066;52.042;5.648;2024-01-27T13:18:36;18.45;;;5.70;;
25073;SDS011;13066;52.042;5.648;2024-01-27T13:21:06;15.95;;;5.63;;
25073;SDS011;13066;52.042;5.648;2024-01-27T13:23:34;14.13;;;5.13;;
25073;SDS011;13066;52.042;5.648;2024-01-27T13:26:03;14.30;;;5.68;;
25073;SDS011;13066;52.042;5.648;2024-01-27T13:28:43;16.00;;;5.63;;
25073;SDS011;13066;52.042;5.648;2024-01-27T13:31:13;16.90;;;5.43;;
25073;SDS011;13066;52.042;5.648;2024-01-27T13:33:41;16.00;;;5.53;;
25073;SDS011;13066;52.042;5.648;2024-01-27T13:36:10;17.33;;;5.90;;
25073;SDS011;13066;52.042;5.648;2024-01-27T13:38:38;16.95;;;6.32;;
25073;SDS011;13066;52.042;5.648;2024-01-27T13:41:06;14.40;;;5.35;;
25073;SDS011;13066;52.042;5.648;2024-01-27T13:43:34;15.07;;;5.45;;
25073;SDS011;13066;52.042;5.648;2024-01-27T13:46:02;14.48;;;5.05;;
25073;SDS011;13066;52.042;5.648;2024-01-27T13:48:31;19.25;;;5.80;;
25073;SDS011;13066;52.042;5.648;2024-01-27T13:50:59;15.95;;;5.78;;
25073;SDS011;13066;52.042;5.648;2024-01-27T13:53:29;16.92;;;5.60;;
25073;SDS011;13066;52.042;5.648;2024-01-27T13:56:12;19.20;;;6.55;;
25073;SDS011;13066;52.042;5.648;2024-01-27T13:58:40;17.08;;;5.78;;
25073;SDS011;13066;52.042;5.648;2024-01-27T14:01:08;15.80;;;6.15;;
25073;SDS011;13066;52.042;5.648;2024-01-27T14:03:36;16.42;;;6.00;;
25073;SDS011;13066;52.042;5.648;2024-01-27T14:06:05;18.15;;;5.38;;
25073;SDS011;13066;52.042;5.648;2024-01-27T14:08:35;16.05;;;6.18;;
25073;SDS011;13066;52.042;5.648;2024-01-27T14:11:03;20.63;;;5.70;;
25073;SDS011;13066;52.042;5.648;2024-01-27T14:13:32;20.30;;;6.05;;
25073;SDS011;13066;52.042;5.648;2024-01-27T14:16:00;13.55;;;5.80;;
25073;SDS011;13066;52.042;5.648;2024-01-27T14:18:28;19.00;;;6.38;;
25073;SDS011;13066;52.042;5.648;2024-01-27T14:20:58;16.92;;;5.63;;
25073;SDS011;13066;52.042;5.648;2024-01-27T14:23:26;14.75;;;5.60;;
25073;SDS011;13066;52.042;5.648;2024-01-27T14:25:56;15.43;;;6.32;;
25073;SDS011;13066;52.042;5.648;2024-01-27T14:28:24;15.68;;;5.60;;
25073;SDS011;13066;52.042;5.648;2024-01-27T14:30:52;16.42;;;5.95;;
25073;SDS011;13066;52.042;5.648;2024-01-27T14:33:21;15.48;;;5.00;;
25073;SDS011;13066;52.042;5.648;2024-01-27T14:35:50;16.60;;;5.75;;
25073;SDS011;13066;52.042;5.648;2024-01-27T14:38:20;11.23;;;5.00;;
25073;SDS011;13066;52.042;5.648;2024-01-27T14:40:48;15.48;;;5.45;;
25073;SDS011;13066;52.042;5.648;2024-01-27T14:43:17;17.10;;;5.85;;